Time;durP1;ratioP1;P1;durP2;ratioP2;P2;SDS_P1;SDS_P2;PMS_P1;PMS_P2;Temp;Humidity;BMP_temperature;BMP_pressure;BME280_temperature;BME280_humidity;BME280_pressure;Samples;Min_cycle;Max_cycle;Signal;HPM_P1;HPM_P2
2023/03/17 00:00:41;;;;;;;15.25;9.35;;;9.90;99.90;;;;;;4807706;29;20043;-56
2023/03/17 00:03:26;;;;;;;17.15;10.68;;;9.90;99.90;;;;;;4812082;29;20049;-56
2023/03/17 00:05:55;;;;;;;16.80;10.35;;;9.90;99.90;;;;;;4834432;29;20514;-57
2023/03/17 00:08:30;;;;;;;19.15;10.30;;;9.90;99.90;;;;;;4825373;29;20050;-57
2023/03/17 00:10:58;;;;;;;16.25;9.30;;;9.90;99.90;;;;;;4816073;29;20411;-58
2023/03/17 00:13:27;;;;;;;15.10;8.65;;;9.80;99.90;;;;;;4809566;29;20063;-58
2023/03/17 00:15:59;;;;;;;18.38;10.15;;;9.70;99.90;;;;;;4799176;29;20051;-58
2023/03/17 00:18:30;;;;;;;14.05;8.35;;;9.60;99.90;;;;;;4822371;29;20061;-57
2023/03/17 00:20:59;;;;;;;17.60;8.45;;;9.60;99.90;;;;;;4802006;29;20050;-56
2023/03/17 00:23:27;;;;;;;15.63;9.23;;;9.60;99.90;;;;;;4820796;29;20046;-57
2023/03/17 00:25:56;;;;;;;14.48;8.68;;;9.50;99.90;;;;;;4815605;29;20051;-56
2023/03/17 00:28:26;;;;;;;19.15;9.10;;;9.50;99.90;;;;;;4820612;29;20058;-57
2023/03/17 00:30:57;;;;;;;16.02;9.32;;;9.50;99.90;;;;;;4814043;29;20266;-56
2023/03/17 00:33:28;;;;;;;21.98;10.65;;;9.50;99.90;;;;;;4820629;29;20069;-58
2023/03/17 00:35:57;;;;;;;18.45;10.70;;;9.60;99.90;;;;;;4802881;29;20047;-58
2023/03/17 00:38:25;;;;;;;19.85;10.10;;;9.50;99.90;;;;;;4811573;29;20058;-57
2023/03/17 00:40:53;;;;;;;16.35;9.35;;;9.60;99.90;;;;;;4817604;29;20510;-56
2023/03/17 00:43:21;;;;;;;19.88;10.32;;;9.60;99.90;;;;;;4821699;29;20050;-57
2023/03/17 00:45:50;;;;;;;21.50;11.00;;;9.60;99.90;;;;;;4823937;29;20061;-58
2023/03/17 00:48:21;;;;;;;15.85;8.68;;;9.60;99.90;;;;;;4810268;29;20057;-57
2023/03/17 00:50:49;;;;;;;18.85;9.70;;;9.50;99.90;;;;;;4833698;29;20061;-56
2023/03/17 00:53:20;;;;;;;19.58;9.23;;;9.40;99.90;;;;;;4820827;29;20055;-58
2023/03/17 00:55:48;;;;;;;20.20;11.30;;;9.40;99.90;;;;;;4817100;29;20054;-57
2023/03/17 00:58:32;;;;;;;20.63;11.15;;;9.40;99.90;;;;;;4816709;29;20042;-56
2023/03/17 01:01:00;;;;;;;22.00;11.20;;;9.30;99.90;;;;;;4803744;29;20061;-57
2023/03/17 01:03:28;;;;;;;19.45;10.45;;;9.30;99.90;;;;;;4813072;29;20050;-56
2023/03/17 01:06:00;;;;;;;18.55;10.00;;;9.20;99.90;;;;;;4836721;29;20046;-57
2023/03/17 01:08:30;;;;;;;15.80;9.52;;;9.10;99.90;;;;;;4834834;29;20050;-56
2023/03/17 01:10:58;;;;;;;23.98;10.50;;;9.10;99.90;;;;;;4840207;29;20054;-56
2023/03/17 01:13:26;;;;;;;19.10;10.57;;;9.00;99.90;;;;;;4838550;29;20498;-57
2023/03/17 01:15:55;;;;;;;20.58;10.50;;;9.00;99.90;;;;;;4828016;29;20399;-57
2023/03/17 01:18:23;;;;;;;21.65;10.25;;;9.00;99.90;;;;;;4827262;29;20050;-56
2023/03/17 01:20:52;;;;;;;21.27;9.75;;;8.90;99.90;;;;;;4839951;29;20054;-58
2023/03/17 01:23:20;;;;;;;17.60;10.48;;;8.90;99.90;;;;;;4837146;29;20529;-56
2023/03/17 01:25:48;;;;;;;20.52;10.00;;;8.90;99.90;;;;;;4820810;29;20051;-55
2023/03/17 01:28:19;;;;;;;21.00;10.63;;;8.80;99.90;;;;;;4806249;29;20070;-55
2023/03/17 01:30:47;;;;;;;21.90;9.47;;;8.80;99.90;;;;;;4807334;29;20161;-55
2023/03/17 01:33:17;;;;;;;18.48;9.52;;;8.90;99.90;;;;;;4825895;29;20294;-56
2023/03/17 01:35:44;;;;;;;22.77;11.63;;;8.90;99.90;;;;;;4838400;29;20046;-57
2023/03/17 01:38:13;;;;;;;25.60;12.00;;;8.90;99.90;;;;;;4823151;29;20045;-55
2023/03/17 01:40:45;;;;;;;24.33;10.68;;;8.90;99.90;;;;;;4804220;29;20063;-56
2023/03/17 01:43:23;;;;;;;17.48;9.27;;;8.90;99.90;;;;;;4810694;29;20546;-56
2023/03/17 01:46:12;;;;;;;20.60;10.43;;;8.90;99.90;;;;;;4832773;29;20038;-56
2023/03/17 01:48:44;;;;;;;23.70;11.25;;;8.90;99.90;;;;;;4829414;29;20058;-56
2023/03/17 01:51:17;;;;;;;19.75;10.93;;;8.90;99.90;;;;;;4826519;29;20047;-56
2023/03/17 01:53:48;;;;;;;21.27;10.40;;;8.90;99.90;;;;;;4816806;29;20076;-57
2023/03/17 01:56:16;;;;;;;22.77;11.45;;;9.00;99.90;;;;;;4820452;29;20065;-56
2023/03/17 01:58:48;;;;;;;19.55;11.07;;;9.00;99.90;;;;;;4816992;29;20051;-59
2023/03/17 02:01:16;;;;;;;23.50;12.32;;;9.00;99.90;;;;;;4816313;29;20057;-56
2023/03/17 02:03:44;;;;;;;23.30;11.05;;;9.10;99.90;;;;;;4817512;29;20050;-57
2023/03/17 02:06:12;;;;;;;20.63;11.65;;;9.10;99.90;;;;;;4822926;29;20055;-56
2023/03/17 02:08:40;;;;;;;23.85;12.18;;;9.10;99.90;;;;;;4819660;29;20046;-56
2023/03/17 02:11:09;;;;;;;20.38;10.38;;;9.20;99.90;;;;;;4823744;29;20054;-56
2023/03/17 02:13:40;;;;;;;21.92;10.63;;;9.20;99.90;;;;;;4827940;29;20388;-56
2023/03/17 02:16:14;;;;;;;24.50;10.85;;;9.20;99.90;;;;;;4812661;29;20071;-56
2023/03/17 02:18:43;;;;;;;26.08;11.95;;;9.10;99.90;;;;;;4829427;29;20054;-56
2023/03/17 02:21:34;;;;;;;23.70;11.40;;;9.10;99.90;;;;;;4822231;29;20043;-56
2023/03/17 02:24:07;;;;;;;30.50;11.68;;;9.00;99.90;;;;;;4825545;29;20559;-56
2023/03/17 02:26:36;;;;;;;25.08;11.65;;;9.00;99.90;;;;;;4806873;29;20046;-55
2023/03/17 02:29:04;;;;;;;20.77;11.70;;;9.00;99.90;;;;;;4824785;29;20514;-56
2023/03/17 02:31:33;;;;;;;21.65;9.90;;;8.90;99.90;;;;;;4812263;29;20054;-55
2023/03/17 02:34:01;;;;;;;21.88;10.38;;;8.90;99.90;;;;;;4823781;29;20042;-56
2023/03/17 02:36:31;;;;;;;23.95;10.82;;;8.80;99.90;;;;;;4823411;29;20058;-56
2023/03/17 02:39:03;;;;;;;28.55;12.80;;;8.80;99.90;;;;;;4834787;29;20046;-56
2023/03/17 02:41:30;;;;;;;23.05;11.85;;;8.80;99.90;;;;;;4819400;29;20051;-55
2023/03/17 02:44:01;;;;;;;26.33;11.77;;;8.80;99.90;;;;;;4808169;29;20369;-55
2023/03/17 02:46:29;;;;;;;21.75;11.52;;;8.70;99.90;;;;;;4827329;29;20047;-55
2023/03/17 02:49:00;;;;;;;23.35;10.43;;;8.80;99.90;;;;;;4822150;29;20047;-57
2023/03/17 02:51:28;;;;;;;17.45;9.93;;;8.70;99.90;;;;;;4823282;29;20392;-56
2023/03/17 02:53:58;;;;;;;20.30;10.65;;;8.70;99.90;;;;;;4823640;29;20046;-56
2023/03/17 02:56:29;;;;;;;26.00;12.63;;;8.70;99.90;;;;;;4823547;29;20066;-56
2023/03/17 02:58:56;;;;;;;31.77;12.27;;;8.70;99.90;;;;;;4822901;29;20054;-56
2023/03/17 03:01:25;;;;;;;29.20;12.48;;;8.70;99.90;;;;;;4823302;29;20051;-56
2023/03/17 03:03:53;;;;;;;25.27;11.13;;;8.80;99.90;;;;;;4823385;29;20061;-55
2023/03/17 03:06:22;;;;;;;21.27;11.63;;;8.80;99.90;;;;;;4822970;29;20047;-56
2023/03/17 03:08:51;;;;;;;28.30;13.95;;;8.80;99.90;;;;;;4823453;29;20054;-57
2023/03/17 03:11:19;;;;;;;21.17;10.43;;;8.90;99.90;;;;;;4823119;29;20073;-56
2023/03/17 03:13:46;;;;;;;32.60;12.45;;;8.90;99.90;;;;;;4823329;29;20506;-57
2023/03/17 03:16:14;;;;;;;26.33;11.68;;;8.90;99.90;;;;;;4821417;29;20058;-59
2023/03/17 03:18:42;;;;;;;30.60;13.18;;;8.90;99.90;;;;;;4822426;29;20058;-59
2023/03/17 03:21:10;;;;;;;23.58;11.88;;;8.90;99.90;;;;;;4823099;29;20050;-57
2023/03/17 03:23:38;;;;;;;32.60;12.77;;;9.00;99.90;;;;;;4823118;29;20493;-57
2023/03/17 03:26:06;;;;;;;21.67;11.20;;;9.00;99.90;;;;;;4821712;29;20062;-58
2023/03/17 03:28:45;;;;;;;26.65;12.70;;;9.00;99.90;;;;;;4823063;29;20061;-56
2023/03/17 03:31:12;;;;;;;30.98;12.52;;;8.90;99.90;;;;;;4819921;29;20058;-59
2023/03/17 03:33:41;;;;;;;28.27;12.05;;;8.90;99.90;;;;;;4822930;29;20054;-55
2023/03/17 03:36:09;;;;;;;27.63;11.75;;;8.90;99.90;;;;;;4822875;29;20407;-56
2023/03/17 03:38:36;;;;;;;27.85;11.50;;;8.80;99.90;;;;;;4822812;29;20051;-56
2023/03/17 03:41:05;;;;;;;25.83;12.43;;;8.80;99.90;;;;;;4822878;29;20046;-56
2023/03/17 03:43:32;;;;;;;29.48;12.38;;;8.80;99.90;;;;;;4822510;29;20069;-58
2023/03/17 03:46:03;;;;;;;26.05;12.07;;;8.70;99.90;;;;;;4822799;29;20047;-60
2023/03/17 03:48:31;;;;;;;20.30;9.70;;;8.70;99.90;;;;;;4822610;29;20050;-56
2023/03/17 03:51:00;;;;;;;20.80;12.07;;;8.70;99.90;;;;;;4822632;29;20057;-56
2023/03/17 03:53:28;;;;;;;25.33;11.68;;;8.70;99.90;;;;;;4822771;29;20063;-57
2023/03/17 03:55:56;;;;;;;28.20;11.82;;;8.60;99.90;;;;;;4804367;29;20057;-57
2023/03/17 03:58:23;;;;;;;25.13;10.82;;;8.60;99.90;;;;;;4804404;29;20696;-56
2023/03/17 04:00:51;;;;;;;23.50;11.02;;;8.60;99.90;;;;;;4804532;29;20051;-56
2023/03/17 04:03:19;;;;;;;28.23;11.50;;;8.60;99.90;;;;;;4822026;29;20058;-57
2023/03/17 04:05:47;;;;;;;28.02;10.95;;;8.60;99.90;;;;;;4822493;29;20074;-56
2023/03/17 04:08:15;;;;;;;22.55;10.52;;;8.60;99.90;;;;;;4809131;29;20054;-57
2023/03/17 04:10:43;;;;;;;26.17;12.27;;;8.60;99.90;;;;;;4804210;29;20071;-56
2023/03/17 04:13:12;;;;;;;26.05;11.30;;;8.70;99.90;;;;;;4816123;29;20518;-56
2023/03/17 04:15:41;;;;;;;26.67;12.27;;;8.70;99.90;;;;;;4822232;29;20058;-57
2023/03/17 04:18:08;;;;;;;28.33;12.13;;;8.70;99.90;;;;;;4804190;29;20047;-56
2023/03/17 04:20:37;;;;;;;23.33;11.82;;;8.70;99.90;;;;;;4804056;29;20058;-55
2023/03/17 04:23:05;;;;;;;24.90;11.43;;;8.80;99.90;;;;;;4816748;29;20052;-56
2023/03/17 04:25:33;;;;;;;22.27;9.52;;;8.80;99.90;;;;;;4820171;29;20057;-57
2023/03/17 04:28:00;;;;;;;21.92;9.90;;;8.80;99.90;;;;;;4822717;29;20059;-57
2023/03/17 04:30:28;;;;;;;24.40;10.63;;;8.90;99.90;;;;;;4825868;29;20076;-55
2023/03/17 04:32:56;;;;;;;29.48;10.77;;;8.80;99.90;;;;;;4825490;29;20065;-57
2023/03/17 04:35:23;;;;;;;16.83;8.80;;;8.80;99.90;;;;;;4824352;29;20598;-56
2023/03/17 04:37:51;;;;;;;21.63;9.27;;;8.80;99.90;;;;;;4825613;29;20053;-56
2023/03/17 04:40:19;;;;;;;23.20;10.38;;;8.80;99.90;;;;;;4824152;29;20487;-56
2023/03/17 04:42:47;;;;;;;25.58;11.45;;;8.80;99.90;;;;;;4825543;29;20057;-55
2023/03/17 04:45:15;;;;;;;22.35;11.05;;;8.80;99.90;;;;;;4825529;29;20061;-56
2023/03/17 04:47:45;;;;;;;20.17;10.55;;;8.80;99.90;;;;;;4840530;29;20054;-56
2023/03/17 04:50:13;;;;;;;22.80;10.68;;;8.80;99.90;;;;;;4843788;29;20058;-57
2023/03/17 04:52:41;;;;;;;18.38;9.20;;;8.70;99.90;;;;;;4838677;29;20042;-55
2023/03/17 04:55:10;;;;;;;26.55;9.88;;;8.70;99.90;;;;;;4825397;29;20439;-57
2023/03/17 04:57:38;;;;;;;22.73;10.73;;;8.70;99.90;;;;;;4825427;29;20053;-56
2023/03/17 05:00:07;;;;;;;20.80;8.35;;;8.70;99.90;;;;;;4824066;29;20051;-59
2023/03/17 05:02:34;;;;;;;19.63;9.00;;;8.70;99.90;;;;;;4825164;29;20054;-55
2023/03/17 05:05:05;;;;;;;21.27;9.05;;;8.60;99.90;;;;;;4825100;29;20388;-56
2023/03/17 05:07:33;;;;;;;15.10;7.95;;;8.60;99.90;;;;;;4825001;29;20664;-55
2023/03/17 05:10:01;;;;;;;22.45;8.73;;;8.70;99.90;;;;;;4825185;29;20070;-56
2023/03/17 05:12:29;;;;;;;17.02;8.88;;;;;;;;;;4824895;29;20495;-56
2023/03/17 05:14:56;;;;;;;16.00;8.60;;;8.60;99.90;;;;;;4824849;29;20057;-58
2023/03/17 05:17:25;;;;;;;22.50;10.35;;;8.60;99.90;;;;;;4838062;29;20050;-57
2023/03/17 05:19:52;;;;;;;21.85;8.38;;;8.60;99.90;;;;;;4843134;29;20057;-56
2023/03/17 05:22:20;;;;;;;16.20;8.57;;;8.60;99.90;;;;;;4843166;29;20054;-57
2023/03/17 05:24:47;;;;;;;19.15;7.55;;;6.50;99.90;;;;;;4828479;29;20057;-57
2023/03/17 05:27:15;;;;;;;22.10;8.80;;;8.60;99.90;;;;;;4824600;29;20054;-56
2023/03/17 05:29:43;;;;;;;18.88;8.00;;;8.70;99.90;;;;;;4824904;29;20046;-57
2023/03/17 05:32:10;;;;;;;18.92;7.97;;;8.70;99.90;;;;;;4824680;29;20061;-55
2023/03/17 05:34:38;;;;;;;21.92;9.20;;;8.70;99.90;;;;;;4821412;29;20051;-56
2023/03/17 05:37:06;;;;;;;19.02;8.02;;;8.70;99.90;;;;;;4824552;29;20053;-56
2023/03/17 05:39:34;;;;;;;17.77;8.00;;;8.70;99.90;;;;;;4824037;29;20057;-57
2023/03/17 05:42:05;;;;;;;21.27;8.90;;;8.70;99.90;;;;;;4824435;29;20372;-57
2023/03/17 05:44:33;;;;;;;;;;;8.70;99.90;;;;;;4824935;29;20417;-56
2023/03/17 05:47:01;;;;;;;15.80;7.40;;;8.80;99.90;;;;;;4834556;29;19924;-57
2023/03/17 05:49:34;;;;;;;17.58;7.03;;;8.70;99.90;;;;;;4802360;29;20059;-58
2023/03/17 05:52:02;;;;;;;22.40;8.07;;;8.70;99.90;;;;;;4803322;29;20058;-60
2023/03/17 05:54:32;;;;;;;;;;;8.60;99.90;;;;;;4812165;29;20495;-57
2023/03/17 05:57:02;;;;;;;18.13;8.43;;;8.60;99.90;;;;;;4819938;29;19932;-57
2023/03/17 05:59:30;;;;;;;19.00;8.55;;;;;;;;;;4803118;29;20050;-57
2023/03/17 06:01:58;;;;;;;19.35;8.50;;;8.50;99.90;;;;;;4802212;29;20066;-59
2023/03/17 06:04:26;;;;;;;24.83;8.63;;;8.60;99.90;;;;;;4802891;29;20500;-57
2023/03/17 06:06:56;;;;;;;;;;;8.50;99.90;;;;;;4798767;29;20065;-56
2023/03/17 06:09:23;;;;;;;22.65;7.88;;;8.50;99.90;;;;;;4817641;29;19932;-56
2023/03/17 06:11:51;;;;;;;21.73;8.50;;;8.50;99.90;;;;;;4819754;29;20388;-56
2023/03/17 06:14:19;;;;;;;21.60;9.00;;;8.50;99.90;;;;;;4827102;29;20058;-56
2023/03/17 06:16:46;;;;;;;19.85;8.93;;;8.50;99.90;;;;;;4823251;29;20328;-56
2023/03/17 06:19:14;;;;;;;26.35;9.32;;;8.60;99.90;;;;;;4824041;29;20054;-56
2023/03/17 06:21:42;;;;;;;19.52;8.98;;;8.60;99.90;;;;;;4819028;29;20039;-56
2023/03/17 06:24:10;;;;;;;21.70;8.63;;;8.60;99.90;;;;;;4833503;29;20403;-56
2023/03/17 06:26:38;;;;;;;30.08;10.45;;;8.60;99.90;;;;;;4820823;29;20057;-57
2023/03/17 06:29:10;;;;;;;25.70;9.75;;;8.70;99.90;;;;;;4835499;29;20173;-56
2023/03/17 06:31:38;;;;;;;23.67;9.07;;;8.70;99.90;;;;;;4838762;29;20042;-57
2023/03/17 06:34:07;;;;;;;21.35;10.20;;;;;;;;;;4824141;29;20065;-57
2023/03/17 06:36:34;;;;;;;24.48;9.75;;;8.70;99.90;;;;;;4834500;29;20057;-57
2023/03/17 06:39:05;;;;;;;24.80;8.32;;;;;;;;;;4829865;29;20050;-57
2023/03/17 06:41:36;;;;;;;18.17;7.53;;;8.70;99.90;;;;;;4818677;29;20054;-56
2023/03/17 06:44:04;;;;;;;23.52;9.00;;;8.70;99.90;;;;;;4834153;29;20386;-57
2023/03/17 06:46:32;;;;;;;19.23;8.10;;;8.60;99.90;;;;;;4836534;29;20050;-56
2023/03/17 06:49:00;;;;;;;22.88;8.77;;;8.60;99.90;;;;;;4823774;29;20047;-57
2023/03/17 06:51:29;;;;;;;22.77;8.68;;;8.60;99.90;;;;;;4818713;29;20055;-57
2023/03/17 06:53:57;;;;;;;21.27;8.67;;;8.60;99.90;;;;;;4829579;29;20062;-57
2023/03/17 06:56:25;;;;;;;22.95;9.23;;;8.70;99.90;;;;;;4816885;29;20057;-56
2023/03/17 06:58:57;;;;;;;24.15;8.82;;;8.50;99.90;;;;;;4828054;29;20053;-56
2023/03/17 07:01:29;;;;;;;24.17;10.20;;;8.70;99.90;;;;;;4818628;29;20377;-56
2023/03/17 07:03:57;;;;;;;27.67;9.63;;;8.70;99.90;;;;;;4824480;29;20050;-56
2023/03/17 07:06:25;;;;;;;18.42;7.57;;;8.70;99.90;;;;;;4834599;29;20042;-57
2023/03/17 07:08:53;;;;;;;21.05;7.72;;;8.70;99.90;;;;;;4835284;29;20058;-57
2023/03/17 07:11:22;;;;;;;26.15;9.07;;;8.80;99.90;;;;;;4820084;29;20050;-56
2023/03/17 07:13:50;;;;;;;38.80;11.77;;;8.80;99.90;;;;;;4834525;29;20379;-59
2023/03/17 07:16:19;;;;;;;25.85;8.40;;;8.90;99.90;;;;;;4836783;29;20053;-56
2023/03/17 07:18:47;;;;;;;26.77;9.27;;;8.90;99.90;;;;;;4824869;29;20063;-56
2023/03/17 07:21:15;;;;;;;22.70;8.73;;;8.90;99.90;;;;;;4814527;29;20563;-57
2023/03/17 07:23:43;;;;;;;26.27;8.35;;;9.00;99.90;;;;;;4815237;29;20054;-56
2023/03/17 07:26:10;;;;;;;26.48;7.35;;;9.00;99.90;;;;;;4819273;29;20483;-59
2023/03/17 07:28:39;;;;;;;24.15;8.57;;;9.10;99.90;;;;;;4831018;29;20057;-58
2023/03/17 07:31:08;;;;;;;22.48;6.82;;;9.00;99.90;;;;;;4812019;29;20059;-58
2023/03/17 07:33:36;;;;;;;18.67;7.07;;;9.10;99.90;;;;;;4808477;29;20054;-59
2023/03/17 07:36:07;;;;;;;24.27;8.10;;;9.20;99.90;;;;;;4836759;29;20050;-57
2023/03/17 07:38:36;;;;;;;28.73;7.78;;;9.20;99.90;;;;;;4809316;29;20587;-58
2023/03/17 07:41:09;;;;;;;20.90;6.13;;;9.30;99.90;;;;;;4814383;29;20043;-58
2023/03/17 07:43:37;;;;;;;20.77;6.30;;;9.30;99.90;;;;;;4817081;29;20062;-57
2023/03/17 07:46:05;;;;;;;18.55;6.00;;;9.40;99.90;;;;;;4824220;29;20496;-57
2023/03/17 07:48:36;;;;;;;16.42;5.65;;;9.40;99.90;;;;;;4831997;29;20411;-56
2023/03/17 07:51:04;;;;;;;17.77;6.30;;;9.40;99.90;;;;;;4819915;29;20070;-57
2023/03/17 07:53:32;;;;;;;15.43;5.45;;;9.40;99.90;;;;;;4831107;29;20050;-56
2023/03/17 07:56:01;;;;;;;20.88;5.15;;;9.40;99.90;;;;;;4819480;29;20077;-57
2023/03/17 07:58:29;;;;;;;23.30;7.68;;;9.50;99.90;;;;;;4828593;29;20050;-60
2023/03/17 08:00:57;;;;;;;19.75;7.45;;;9.50;99.90;;;;;;4836605;29;20050;-57
2023/03/17 08:03:25;;;;;;;21.27;6.05;;;9.60;99.90;;;;;;4827277;29;20054;-59
2023/03/17 08:05:56;;;;;;;15.35;4.70;;;9.60;99.90;;;;;;4804208;29;20059;-59
2023/03/17 08:08:24;;;;;;;12.88;5.60;;;9.60;99.90;;;;;;4824311;29;20057;-61
2023/03/17 08:10:53;;;;;;;11.75;4.10;;;;;;;;;;4840571;29;20394;-60
2023/03/17 08:13:21;;;;;;;18.17;4.72;;;9.60;99.90;;;;;;4823852;29;20058;-60
2023/03/17 08:15:51;;;;;;;13.82;5.20;;;9.60;99.90;;;;;;4826596;29;20050;-58
2023/03/17 08:18:20;;;;;;;17.70;4.63;;;9.60;99.90;;;;;;4832794;29;20049;-60
2023/03/17 08:20:48;;;;;;;14.63;4.07;;;9.60;99.90;;;;;;4823679;29;20519;-62
2023/03/17 08:23:17;;;;;;;13.95;5.55;;;9.60;99.90;;;;;;4835445;29;20383;-60
2023/03/17 08:25:46;;;;;;;17.07;4.57;;;9.70;99.90;;;;;;4822906;29;20054;-56
2023/03/17 08:28:15;;;;;;;17.77;4.53;;;9.80;99.90;;;;;;4832914;29;20219;-58
2023/03/17 08:30:43;;;;;;;12.52;4.45;;;9.80;99.90;;;;;;4843385;29;20049;-58
2023/03/17 08:33:11;;;;;;;17.25;3.67;;;9.80;99.90;;;;;;4842983;29;20060;-58
2023/03/17 08:35:40;;;;;;;10.45;3.50;;;9.80;99.90;;;;;;4822680;29;20051;-58
2023/03/17 08:38:08;;;;;;;17.77;2.95;;;9.80;99.90;;;;;;4824504;29;20062;-57
2023/03/17 08:40:37;;;;;;;16.77;4.28;;;9.90;99.90;;;;;;4824772;29;20058;-58
2023/03/17 08:43:06;;;;;;;17.75;4.30;;;9.90;99.90;;;;;;4828657;29;20057;-58
2023/03/17 08:45:34;;;;;;;10.77;3.40;;;10.00;99.90;;;;;;4843278;29;20057;-59
2023/03/17 08:48:02;;;;;;;19.38;3.58;;;10.00;99.90;;;;;;4831954;29;20066;-56
2023/03/17 08:50:30;;;;;;;12.35;2.92;;;10.10;99.90;;;;;;4816697;29;20058;-56
2023/03/17 08:52:58;;;;;;;15.48;3.40;;;10.10;99.90;;;;;;4825558;29;20589;-57
2023/03/17 08:55:26;;;;;;;16.38;3.55;;;10.20;99.90;;;;;;4803092;29;20047;-57
2023/03/17 08:57:54;;;;;;;11.60;3.80;;;10.20;99.90;;;;;;4826521;29;20064;-57
2023/03/17 09:00:22;;;;;;;11.20;2.90;;;10.20;99.90;;;;;;4841695;29;20057;-57
2023/03/17 09:02:49;;;;;;;17.75;4.35;;;10.30;99.90;;;;;;4843047;29;20057;-57
2023/03/17 09:05:18;;;;;;;15.93;3.75;;;10.30;99.90;;;;;;4830258;29;20054;-56
2023/03/17 09:07:47;;;;;;;14.75;2.67;;;10.30;99.90;;;;;;4829310;29;20521;-57
2023/03/17 09:10:20;;;;;;;11.70;3.40;;;10.40;99.90;;;;;;4834840;29;20061;-56
2023/03/17 09:12:49;;;;;;;16.52;2.63;;;10.40;99.90;;;;;;4831007;29;20042;-58
2023/03/17 09:15:20;;;;;;;13.02;3.42;;;10.40;99.90;;;;;;4831348;29;20055;-56
2023/03/17 09:17:48;;;;;;;15.25;3.10;;;10.30;99.90;;;;;;4824460;29;20053;-57
2023/03/17 09:20:16;;;;;;;14.95;3.78;;;10.30;99.90;;;;;;4839802;29;20050;-56
2023/03/17 09:22:43;;;;;;;6.18;2.22;;;10.30;99.90;;;;;;4837844;29;20042;-57
2023/03/17 09:25:11;;;;;;;18.35;3.15;;;10.30;99.90;;;;;;4816903;29;20062;-56
2023/03/17 09:27:39;;;;;;;15.32;3.45;;;10.40;99.90;;;;;;4821228;29;20046;-58
2023/03/17 09:30:12;;;;;;;15.35;3.30;;;10.40;99.90;;;;;;4823029;29;20065;-57
2023/03/17 09:32:40;;;;;;;13.70;2.80;;;10.50;99.90;;;;;;4812590;29;20057;-59
2023/03/17 09:35:08;;;;;;;7.75;3.33;;;10.50;99.90;;;;;;4817589;29;20058;-61
2023/03/17 09:37:37;;;;;;;9.88;2.95;;;;;;;;;;4832884;29;20403;-61
2023/03/17 09:40:07;;;;;;;14.40;2.83;;;10.70;99.90;;;;;;4821095;29;20396;-58
2023/03/17 09:42:48;;;;;;;12.25;2.50;;;10.70;99.90;;;;;;4808556;29;20043;-58
2023/03/17 09:45:32;;;;;;;9.15;2.92;;;10.90;99.90;;;;;;4830251;29;20053;-62
2023/03/17 09:48:36;;;;;;;16.35;3.08;;;10.80;99.90;;;;;;4810689;29;20037;-57
2023/03/17 09:51:07;;;;;;;13.52;2.95;;;11.00;99.90;;;;;;4839112;29;20053;-57
2023/03/17 09:53:45;;;;;;;11.90;2.40;;;10.90;99.90;;;;;;4831235;29;20049;-57
2023/03/17 09:56:15;;;;;;;8.80;2.58;;;11.10;99.90;;;;;;4820988;29;20057;-58
2023/03/17 09:59:07;;;;;;;18.90;2.80;;;11.10;99.90;;;;;;4815351;29;20058;-57
2023/03/17 10:01:39;;;;;;;11.27;2.40;;;11.20;99.90;;;;;;4807071;29;20055;-61
2023/03/17 10:04:10;;;;;;;15.65;2.45;;;11.40;99.90;;;;;;4833051;29;20491;-60
2023/03/17 10:06:45;;;;;;;6.65;2.13;;;11.40;99.90;;;;;;4820804;29;20054;-58
2023/03/17 10:09:25;;;;;;;9.63;2.22;;;11.50;99.90;;;;;;4808590;29;20047;-58
2023/03/17 10:12:11;;;;;;;14.80;2.83;;;11.70;99.90;;;;;;4802957;29;20051;-59
2023/03/17 10:15:05;;;;;;;14.77;2.80;;;11.90;99.90;;;;;;4819892;29;20050;-60
2023/03/17 10:17:40;;;;;;;10.25;2.20;;;12.10;99.90;;;;;;4833458;29;20061;-63
2023/03/17 10:20:12;;;;;;;11.07;2.35;;;12.20;99.90;;;;;;4837823;29;20061;-61
2023/03/17 10:22:48;;;;;;;11.82;2.55;;;12.20;99.90;;;;;;4831080;29;20054;-63
2023/03/17 10:25:22;;;;;;;11.70;2.35;;;12.20;99.90;;;;;;4822077;29;20418;-60
2023/03/17 10:27:54;;;;;;;11.40;1.83;;;12.20;99.90;;;;;;4825544;29;20395;-61
2023/03/17 10:30:23;;;;;;;8.32;2.42;;;12.20;99.90;;;;;;4821054;29;20058;-59
2023/03/17 10:32:52;;;;;;;7.20;1.75;;;12.10;99.90;;;;;;4827122;29;20066;-61
2023/03/17 10:35:23;;;;;;;9.50;2.28;;;12.10;99.90;;;;;;4838210;29;20410;-59
2023/03/17 10:37:51;;;;;;;14.68;2.63;;;12.20;99.90;;;;;;4818532;29;20423;-58
2023/03/17 10:40:38;;;;;;;13.20;2.33;;;12.20;99.90;;;;;;4809304;29;20149;-57
2023/03/17 10:43:13;;;;;;;8.82;1.65;;;12.30;99.90;;;;;;4828592;29;20072;-59
2023/03/17 10:45:54;;;;;;;13.75;2.17;;;12.50;99.90;;;;;;4838123;29;20061;-58
2023/03/17 10:48:23;;;;;;;12.00;2.40;;;12.70;99.90;;;;;;4827181;29;20057;-58
2023/03/17 10:50:51;;;;;;;8.98;1.65;;;12.90;99.90;;;;;;4835354;29;20050;-58
2023/03/17 10:53:29;;;;;;;5.30;1.48;;;13.10;99.90;;;;;;4824043;29;20066;-57
2023/03/17 10:56:08;;;;;;;11.10;1.45;;;13.20;99.90;;;;;;4801697;29;20427;-58
2023/03/17 10:58:35;;;;;;;8.63;1.33;;;13.20;99.90;;;;;;4807552;29;20074;-58
2023/03/17 11:01:28;;;;;;;9.10;1.55;;;13.30;99.90;;;;;;4838233;29;20069;-57
2023/03/17 11:03:56;;;;;;;8.57;1.95;;;13.30;99.90;;;;;;4832242;29;20061;-59
2023/03/17 11:06:36;;;;;;;11.35;1.90;;;13.20;99.90;;;;;;4838278;29;20054;-57
2023/03/17 11:09:15;;;;;;;15.07;1.98;;;13.10;99.90;;;;;;4819590;29;20054;-61
2023/03/17 11:11:45;;;;;;;8.43;1.75;;;13.20;99.90;;;;;;4815924;29;20055;-60
2023/03/17 11:14:18;;;;;;;11.60;1.77;;;13.20;99.90;;;;;;4834750;29;20056;-62
2023/03/17 11:16:48;;;;;;;10.38;2.10;;;13.20;99.90;;;;;;4830101;29;20249;-62
2023/03/17 11:19:17;;;;;;;12.95;1.70;;;13.30;99.90;;;;;;4820401;29;20058;-58
2023/03/17 11:22:11;;;;;;;10.73;2.20;;;13.30;99.90;;;;;;4818903;29;20047;-58
2023/03/17 11:25:01;;;;;;;8.93;1.77;;;13.40;99.90;;;;;;4804444;29;20051;-58
2023/03/17 11:27:38;;;;;;;12.10;1.92;;;13.60;99.90;;;;;;4803813;29;20050;-57
2023/03/17 11:30:20;;;;;;;8.50;1.40;;;13.60;99.90;;;;;;4835161;29;20064;-59
2023/03/17 11:33:26;;;;;;;7.55;1.50;;;13.70;99.90;;;;;;4825661;29;20046;-58
2023/03/17 11:36:17;;;;;;;9.55;1.90;;;13.70;99.90;;;;;;4824660;29;20077;-57
2023/03/17 11:38:57;;;;;;;9.10;1.42;;;13.60;99.90;;;;;;4820764;29;20053;-58
2023/03/17 11:41:40;;;;;;;15.30;1.88;;;13.60;99.90;;;;;;4801537;29;20059;-58
2023/03/17 11:44:50;;;;;;;8.48;1.60;;;13.60;99.90;;;;;;4818921;29;20061;-58
2023/03/17 11:47:48;;;;;;;16.05;1.83;;;13.60;99.90;;;;;;4827486;29;20050;-58
2023/03/17 11:50:38;;;;;;;7.75;1.63;;;13.70;99.90;;;;;;4816852;29;20076;-58
2023/03/17 11:53:38;;;;;;;10.48;1.63;;;13.80;99.90;;;;;;4827233;29;20390;-59
2023/03/17 11:56:33;;;;;;;7.78;1.55;;;13.80;99.90;;;;;;4816806;29;20061;-58
2023/03/17 11:59:05;;;;;;;11.00;1.80;;;13.90;99.90;;;;;;4801338;29;20067;-58
2023/03/17 12:01:47;;;;;;;7.43;1.35;;;13.80;99.90;;;;;;4801320;29;20081;-59
2023/03/17 12:04:24;;;;;;;9.68;1.95;;;13.70;99.90;;;;;;4816190;29;20046;-57
2023/03/17 12:07:00;;;;;;;5.68;1.48;;;13.70;99.90;;;;;;4837249;29;20057;-57
2023/03/17 12:09:56;;;;;;;11.82;1.73;;;13.70;99.90;;;;;;4805885;29;20411;-58
2023/03/17 12:12:30;;;;;;;8.80;1.42;;;13.70;99.90;;;;;;4814558;29;20054;-61
2023/03/17 12:15:02;;;;;;;10.48;3.05;;;13.60;99.90;;;;;;4818007;29;20050;-58
2023/03/17 12:17:41;;;;;;;5.65;1.27;;;13.60;99.90;;;;;;4814028;29;20062;-58
2023/03/17 12:20:28;;;;;;;7.78;1.13;;;13.50;99.90;;;;;;4818323;29;20061;-58
2023/03/17 12:23:17;;;;;;;5.88;1.55;;;13.50;99.90;;;;;;4823115;29;20411;-57
2023/03/17 12:25:56;;;;;;;10.20;1.67;;;13.50;99.90;;;;;;4804834;29;20062;-58
2023/03/17 12:28:50;;;;;;;9.85;2.08;;;13.50;99.90;;;;;;4813526;29;20054;-58
2023/03/17 12:31:31;;;;;;;15.15;2.45;;;13.50;99.90;;;;;;4817491;29;20495;-57
2023/03/17 12:34:19;;;;;;;8.80;1.60;;;13.50;99.90;;;;;;4827442;29;20054;-58
2023/03/17 12:36:48;;;;;;;13.38;2.05;;;13.60;99.90;;;;;;4799347;29;20058;-58
2023/03/17 12:39:28;;;;;;;20.77;2.95;;;13.60;99.90;;;;;;4831976;29;20050;-58
2023/03/17 12:42:04;;;;;;;9.20;1.85;;;13.60;99.90;;;;;;4818145;29;20058;-58
2023/03/17 12:44:56;;;;;;;12.82;1.45;;;13.60;99.90;;;;;;4824652;29;20054;-58
2023/03/17 12:47:35;;;;;;;12.52;1.30;;;13.80;99.90;;;;;;4832511;29;20047;-59
2023/03/17 12:50:30;;;;;;;10.73;1.65;;;14.50;99.90;;;;;;4816893;29;20496;-59
2023/03/17 12:53:17;;;;;;;6.18;1.20;;;15.30;99.90;;;;;;4809833;29;20514;-59
2023/03/17 12:55:48;;;;;;;10.00;2.55;;;16.00;99.90;;;;;;4831230;29;20509;-61
2023/03/17 12:58:37;;;;;;;6.00;1.75;;;16.50;99.90;;;;;;4826402;29;20505;-59
2023/03/17 13:01:30;;;;;;;8.10;1.77;;;16.70;99.90;;;;;;4820279;29;20487;-61
2023/03/17 13:04:22;;;;;;;9.73;1.10;;;16.40;99.90;;;;;;4821751;29;20050;-59
2023/03/17 13:07:02;;;;;;;10.70;1.63;;;16.40;99.90;;;;;;4830472;29;20396;-59
2023/03/17 13:09:30;;;;;;;4.72;1.13;;;16.40;99.90;;;;;;4830734;29;20084;-58